Bishop, Illinois
Current Conditions -  °F | °C
As of 7:54 PM on Friday 28 Nov 2014 (Local Time) from KPIA Reporting Station
Clear Clear  
Wind Chill: 30°   Ceiling: Unl
Heat Index: 39°   Visibility: 10mi
Dew Point: 30°   Wind: 16mph
Humidity: 70%   Direction: 170°S
Pressure: 29.89"   Gusts: 24mph
Location:  40.3389°N, 89.8274°W
Report Text: KPIA 290154Z 17014G21KT 10SM CLR 04/M01 A2989 RMK AO2 SLP128 T00391011
Loading
Personal Weather Stations






























Interactive Weather Map New forecast layout! Learn more

10-Day Weather Forecast

Advertisements
Track Severe Weather on mobile